Time;durP1;ratioP1;P1;durP2;ratioP2;P2;SDS_P1;SDS_P2;PMS_P1;PMS_P2;Temp;Humidity;BMP_temperature;BMP_pressure;BME280_temperature;BME280_humidity;BME280_pressure;Samples;Min_cycle;Max_cycle;Signal;HPM_P1;HPM_P2
2023/09/29 00:01:26;;;;;;;14.45;9.28;;;;;;;15.23;75.28;101280.02;1828540;78;21046;-74
2023/09/29 00:03:55;;;;;;;15.13;8.93;;;;;;;15.21;75.32;101279.38;1791916;80;21050;-72
2023/09/29 00:06:25;;;;;;;18.75;9.58;;;;;;;15.18;75.42;101281.17;1772643;80;21050;-74
2023/09/29 00:08:54;;;;;;;19.52;9.80;;;;;;;15.14;75.57;101277.13;1797718;79;21007;-74
2023/09/29 00:11:24;;;;;;;15.32;9.80;;;;;;;15.14;75.64;101277.66;1797862;79;21050;-75
2023/09/29 00:13:54;;;;;;;16.87;9.63;;;;;;;15.11;75.66;101275.30;1797652;80;21136;-75
2023/09/29 00:16:22;;;;;;;13.83;8.98;;;;;;;15.09;75.60;101274.66;1797950;80;20987;-74
2023/09/29 00:18:52;;;;;;;15.95;9.70;;;;;;;15.07;75.55;101274.87;1797959;80;21831;-74
2023/09/29 00:21:22;;;;;;;15.23;9.33;;;;;;;15.07;75.56;101272.63;1797750;79;21054;-74
2023/09/29 00:23:50;;;;;;;17.48;9.33;;;;;;;15.07;75.63;101272.63;1797991;80;21011;-73
2023/09/29 00:26:20;;;;;;;14.45;9.23;;;;;;;15.05;75.75;101278.89;1797984;80;21046;-73
2023/09/29 00:28:49;;;;;;;15.35;9.38;;;;;;;15.02;75.77;101271.02;1797743;80;21019;-74
2023/09/29 00:31:19;;;;;;;15.68;9.65;;;;;;;15.01;75.72;101272.08;1797703;80;21026;-71
2023/09/29 00:33:47;;;;;;;16.87;9.33;;;;;;;14.99;75.68;101276.42;1797663;80;21449;-74
2023/09/29 00:36:16;;;;;;;18.67;9.63;;;;;;;15.01;75.65;101274.84;1797796;79;21007;-76
2023/09/29 00:38:46;;;;;;;15.88;9.58;;;;;;;14.99;75.64;101268.67;1798047;80;21003;-75
2023/09/29 00:41:15;;;;;;;14.70;9.23;;;;;;;14.94;75.55;101271.16;1797655;79;20999;-73
2023/09/29 00:43:45;;;;;;;16.48;9.30;;;;;;;14.91;75.63;101268.28;1797621;80;21081;-74
2023/09/29 00:46:15;;;;;;;16.82;9.93;;;;;;;14.88;75.81;101270.92;1797885;80;21469;-73
2023/09/29 00:48:44;;;;;;;18.25;9.83;;;;;;;14.88;75.86;101264.03;1797925;80;21031;-73
2023/09/29 00:51:13;;;;;;;19.10;9.88;;;;;;;14.87;75.87;101268.38;1797714;80;21035;-73
2023/09/29 00:53:42;;;;;;;16.93;10.05;;;;;;;14.83;75.78;101272.07;1797939;79;21046;-74
2023/09/29 00:56:12;;;;;;;19.45;10.18;;;;;;;14.80;75.88;101267.48;1797884;80;21498;-74
2023/09/29 00:58:42;;;;;;;18.55;9.55;;;;;;;14.77;75.93;101268.75;1797879;80;21050;-76
2023/09/29 01:01:14;;;;;;;17.40;10.23;;;;;;;14.74;75.98;101271.06;1797878;80;21418;-73
2023/09/29 01:03:43;;;;;;;14.75;9.80;;;;;;;14.73;76.09;101275.73;1797822;80;21011;-74
2023/09/29 01:06:12;;;;;;;16.77;10.32;;;;;;;14.73;76.19;101277.64;1797827;78;21027;-74
2023/09/29 01:08:41;;;;;;;17.07;9.88;;;;;;;14.72;76.32;101274.55;1800784;79;21066;-73
2023/09/29 01:11:11;;;;;;;14.03;8.95;;;;;;;14.72;76.37;101272.65;1800778;79;21978;-73
2023/09/29 01:13:41;;;;;;;17.25;9.78;;;;;;;14.72;76.39;101275.94;1800805;79;21516;-73
2023/09/29 01:16:10;;;;;;;16.52;10.13;;;;;;;14.69;76.30;101267.53;1800917;80;21054;-74
2023/09/29 01:18:39;;;;;;;17.05;9.73;;;;;;;14.67;76.26;101270.17;1801132;80;21042;-74
2023/09/29 01:21:09;;;;;;;16.97;9.55;;;;;;;14.66;76.14;101267.94;1800981;79;21078;-75
2023/09/29 01:23:38;;;;;;;16.62;9.18;;;;;;;14.64;75.93;101272.81;1800878;80;21037;-74
2023/09/29 01:26:09;;;;;;;18.87;9.75;;;;;;;14.59;75.88;101272.57;1783447;80;21450;-74
2023/09/29 01:28:38;;;;;;;16.70;9.15;;;;;;;14.56;75.95;101277.11;1800909;80;21010;-74
2023/09/29 01:31:09;;;;;;;14.83;9.35;;;;;;;14.54;76.18;101269.04;1800867;79;21035;-73
2023/09/29 01:33:39;;;;;;;16.25;9.53;;;;;;;14.56;76.23;101279.34;1800885;80;21112;-73
2023/09/29 01:36:08;;;;;;;17.32;9.75;;;;;;;14.55;76.15;101273.50;1801118;80;21018;-73
2023/09/29 01:38:40;;;;;;;15.85;9.85;;;;;;;14.55;76.16;101273.50;1800940;80;21027;-74
2023/09/29 01:41:08;;;;;;;16.02;9.63;;;;;;;14.56;76.14;101268.31;1801085;80;21046;-75
2023/09/29 01:43:37;;;;;;;18.00;9.70;;;;;;;14.53;76.07;101270.09;1801131;80;21030;-74
2023/09/29 01:46:09;;;;;;;16.30;9.13;;;;;;;14.49;76.00;101262.42;1800981;78;21002;-73
2023/09/29 01:48:36;;;;;;;17.20;9.45;;;;;;;14.45;75.99;101268.88;1801112;80;21015;-72
2023/09/29 01:51:06;;;;;;;14.38;9.43;;;;;;;14.41;76.08;101264.78;1800827;79;21478;-73
2023/09/29 01:53:36;;;;;;;15.65;9.45;;;;;;;14.40;76.24;101268.59;1801060;80;21010;-74
2023/09/29 01:56:05;;;;;;;18.40;9.73;;;;;;;14.41;76.40;101268.07;1801078;79;21062;-74
2023/09/29 01:58:36;;;;;;;17.77;10.20;;;;;;;14.42;76.48;101272.53;1800868;79;21066;-74
2023/09/29 02:01:06;;;;;;;15.38;10.25;;;;;;;14.38;76.37;101268.47;1800977;79;21062;-74
2023/09/29 02:03:35;;;;;;;16.30;10.15;;;;;;;14.32;76.53;101265.14;1801058;80;21010;-73
2023/09/29 02:06:06;;;;;;;18.62;10.45;;;;;;;14.28;76.60;101264.66;1800982;80;20983;-72
2023/09/29 02:08:35;;;;;;;20.85;10.30;;;;;;;14.27;76.72;101273.98;1793351;80;21003;-75
2023/09/29 02:11:07;;;;;;;17.10;9.80;;;;;;;14.26;76.79;101264.02;1792814;80;21116;-74
2023/09/29 02:13:35;;;;;;;16.32;9.55;;;;;;;14.26;76.88;101268.14;1792747;80;21066;-74
2023/09/29 02:16:12;;;;;;;15.18;9.45;;;;;;;14.25;76.82;101270.58;1792752;80;21513;-74
2023/09/29 02:18:46;;;;;;;18.37;9.25;;;;;;;14.24;76.76;101275.23;1793102;79;21054;-72
2023/09/29 02:21:22;;;;;;;17.55;9.38;;;;;;;14.22;76.74;101265.46;1775753;80;21015;-73
2023/09/29 02:23:54;;;;;;;16.25;9.28;;;;;;;14.21;76.82;101267.37;1793069;79;21074;-73
2023/09/29 02:26:23;;;;;;;15.48;9.13;;;;;;;14.23;76.81;101270.78;1792808;80;21442;-74
2023/09/29 02:28:54;;;;;;;17.82;9.88;;;;;;;14.21;76.82;101269.27;1775462;80;21019;-74
2023/09/29 02:31:26;;;;;;;15.70;9.13;;;;;;;14.18;76.79;101266.39;1792906;80;21023;-73
2023/09/29 02:33:56;;;;;;;17.10;9.35;;;;;;;14.16;76.80;101264.89;1792709;79;21039;-73
2023/09/29 02:36:25;;;;;;;18.02;9.78;;;;;;;14.15;76.83;101264.03;1792739;80;21465;-75
2023/09/29 02:38:54;;;;;;;16.45;9.88;;;;;;;14.16;76.86;101267.12;1792948;80;21485;-73
2023/09/29 02:41:24;;;;;;;16.12;10.08;;;;;;;14.18;76.83;101268.30;1792820;80;21094;-74
2023/09/29 02:43:53;;;;;;;21.00;9.83;;;;;;;14.19;76.91;101272.23;1792776;80;21443;-73
2023/09/29 02:46:23;;;;;;;17.50;9.85;;;;;;;14.21;76.91;101265.14;1792785;80;21485;-75
2023/09/29 02:48:53;;;;;;;17.00;9.93;;;;;;;14.20;76.84;101268.42;1793050;79;21447;-73
2023/09/29 02:51:23;;;;;;;18.02;9.93;;;;;;;14.17;76.84;101266.59;1801132;79;21471;-73
2023/09/29 02:53:54;;;;;;;17.05;10.45;;;;;;;14.14;76.88;101266.47;1792759;79;21466;-73
2023/09/29 02:56:23;;;;;;;19.25;9.48;;;;;;;14.12;77.01;101274.08;1792924;80;21446;-74
2023/09/29 02:58:54;;;;;;;17.98;9.58;;;;;;;14.13;76.99;101274.94;1792894;80;21035;-75
2023/09/29 03:01:23;;;;;;;16.70;10.00;;;;;;;14.07;76.98;101272.45;1792886;79;21046;-74
2023/09/29 03:03:58;;;;;;;16.87;10.15;;;;;;;14.05;77.16;101273.70;1792842;80;21038;-72
2023/09/29 03:06:25;;;;;;;16.02;9.40;;;;;;;14.05;77.25;101270.95;1792995;79;21030;-74
2023/09/29 03:08:54;;;;;;;15.08;9.63;;;;;;;14.03;77.32;101275.80;1791908;79;21439;-72
2023/09/29 03:11:25;;;;;;;17.02;9.93;;;;;;;14.01;77.41;101268.27;1791830;80;21470;-74
2023/09/29 03:13:56;;;;;;;15.05;9.85;;;;;;;13.99;77.53;101271.22;1828470;78;21515;-72
2023/09/29 03:16:25;;;;;;;16.42;9.93;;;;;;;14.00;77.65;101275.68;1791964;80;21011;-73
2023/09/29 03:18:55;;;;;;;20.35;10.90;;;;;;;14.04;77.66;101275.61;1792110;80;21020;-73
2023/09/29 03:21:24;;;;;;;18.77;11.10;;;;;;;14.02;77.48;101268.06;1828726;78;21015;-72
2023/09/29 03:23:54;;;;;;;17.45;9.80;;;;;;;14.00;77.41;101272.92;1791837;79;21447;-73
2023/09/29 03:26:25;;;;;;;18.82;10.45;;;;;;;13.99;77.44;101262.95;1828560;78;20987;-73
2023/09/29 03:28:56;;;;;;;18.57;10.45;;;;;;;13.98;77.43;101269.52;1791982;80;21074;-74
2023/09/29 03:31:26;;;;;;;14.83;9.63;;;;;;;13.95;77.47;101269.91;1791886;80;21067;-74
2023/09/29 03:33:55;;;;;;;22.62;10.82;;;;;;;13.93;77.45;101267.87;1828728;78;21002;-74
2023/09/29 03:36:24;;;;;;;18.37;11.12;;;;;;;13.92;77.57;101268.41;1828614;78;21090;-75
2023/09/29 03:38:55;;;;;;;20.08;10.82;;;;;;;13.93;77.62;101267.87;1794757;78;21066;-74
2023/09/29 03:41:29;;;;;;;17.35;10.35;;;;;;;13.89;77.63;101268.80;1828583;78;20998;-74
2023/09/29 03:43:57;;;;;;;14.13;9.90;;;;;;;13.87;77.72;101269.52;1791835;80;21038;-74
2023/09/29 03:46:28;;;;;;;18.10;10.43;;;;;;;13.82;77.80;101263.76;1791833;80;21078;-74
2023/09/29 03:48:57;;;;;;;25.20;11.22;;;;;;;13.82;77.95;101264.28;1828556;78;21050;-75
2023/09/29 03:51:26;;;;;;;16.65;10.20;;;;;;;13.80;78.05;101265.00;1828611;78;21128;-74
2023/09/29 03:53:55;;;;;;;19.67;11.25;;;;;;;13.81;78.19;101263.95;1828743;78;21003;-74
2023/09/29 03:56:25;;;;;;;18.73;10.88;;;;;;;13.82;78.27;101271.17;1828565;78;21512;-74
2023/09/29 03:58:55;;;;;;;19.48;10.88;;;;;;;13.83;78.36;101265.46;1828534;78;21472;-74
2023/09/29 04:01:27;;;;;;;17.37;10.03;;;;;;;13.83;78.39;101270.12;1828710;78;21539;-74
2023/09/29 04:03:58;;;;;;;20.20;11.18;;;;;;;13.83;78.38;101261.33;1791823;80;21505;-73
2023/09/29 04:06:27;;;;;;;19.45;10.60;;;;;;;13.87;78.38;101268.67;1791963;80;21630;-73
2023/09/29 04:08:57;;;;;;;16.75;10.08;;;;;;;13.91;78.23;101267.22;1805745;78;21014;-74
2023/09/29 04:11:26;;;;;;;22.50;10.18;;;;;;;13.91;78.12;101268.60;1801081;80;21427;-75
2023/09/29 04:13:55;;;;;;;20.20;11.80;;;;;;;13.92;78.03;101273.06;1800928;79;21015;-73
2023/09/29 04:16:25;;;;;;;17.42;10.80;;;;;;;13.93;77.90;101272.02;1800815;80;21484;-74
2023/09/29 04:18:54;;;;;;;24.72;11.03;;;;;;;13.92;77.83;101277.20;1801070;80;21042;-75
2023/09/29 04:21:23;;;;;;;19.42;10.90;;;;;;;13.89;77.85;101274.31;1800847;80;21839;-74
2023/09/29 04:23:52;;;;;;;19.25;10.80;;;;;;;13.88;78.04;101274.51;1800762;78;21050;-72
2023/09/29 04:26:21;;;;;;;20.00;10.68;;;;;;;13.87;78.11;101269.52;1800970;80;21435;-73
2023/09/29 04:28:54;;;;;;;24.07;11.40;;;;;;;13.88;78.08;101273.13;1800853;80;21022;-75
2023/09/29 04:31:23;;;;;;;17.32;10.85;;;;;;;13.86;78.08;101275.23;1800970;79;21062;-75
2023/09/29 04:33:52;;;;;;;20.72;10.98;;;;;;;13.85;78.20;101273.00;1800771;80;21070;-72
2023/09/29 04:36:22;;;;;;;21.27;11.48;;;;;;;13.86;78.33;101271.09;1800952;80;21011;-75
2023/09/29 04:38:51;;;;;;;18.90;11.10;;;;;;;13.89;78.40;101269.33;1800852;80;21047;-74
2023/09/29 04:41:21;;;;;;;20.12;11.00;;;;;;;13.92;78.35;101271.69;1800779;80;21007;-73
2023/09/29 04:43:50;;;;;;;24.07;12.30;;;;;;;13.92;78.39;101268.41;1801008;80;21018;-74
2023/09/29 04:46:19;;;;;;;25.27;12.55;;;;;;;13.93;78.46;101272.02;1800776;80;21442;-71
2023/09/29 04:48:53;;;;;;;21.35;12.03;;;;;;;13.94;78.51;101275.09;1801029;80;21054;-74
2023/09/29 04:51:20;;;;;;;20.65;11.20;;;;;;;13.97;78.63;101269.19;1800950;79;21482;-74
2023/09/29 04:53:49;;;;;;;20.95;10.93;;;;;;;14.02;78.61;101274.95;1781298;80;21054;-73
2023/09/29 04:56:18;;;;;;;17.85;10.75;;;;;;;14.09;78.51;101275.00;1801144;80;21046;-76
2023/09/29 04:58:48;;;;;;;28.47;11.05;;;;;;;14.11;78.39;101273.75;1801012;80;21019;-75
2023/09/29 05:01:19;;;;;;;22.10;13.00;;;;;;;14.14;78.30;101276.11;1801161;80;21003;-74
2023/09/29 05:03:48;;;;;;;18.92;11.55;;;;;;;14.21;78.34;101278.92;1800973;80;20975;-74
2023/09/29 05:06:18;;;;;;;21.20;11.65;;;;;;;14.27;78.30;101276.74;1800844;80;21074;-75
2023/09/29 05:08:47;;;;;;;22.77;12.45;;;;;;;14.35;78.12;101281.28;1819629;78;21053;-75
2023/09/29 05:11:27;;;;;;;20.48;12.80;;;;;;;14.40;77.90;101278.77;1831696;78;21026;-74
2023/09/29 05:13:58;;;;;;;22.40;11.15;;;;;;;14.43;77.73;101281.16;1792781;79;21004;-75
2023/09/29 05:16:27;;;;;;;21.00;12.75;;;;;;;14.45;77.66;101281.28;1792615;80;21039;-74
2023/09/29 05:18:57;;;;;;;21.07;12.93;;;;;;;14.49;77.65;101286.72;1792800;79;21533;-75
2023/09/29 05:21:27;;;;;;;21.23;12.65;;;;;;;14.53;77.56;101280.27;1792845;80;21011;-74
2023/09/29 05:23:57;;;;;;;30.45;15.95;;;;;;;14.57;77.51;101284.33;1792724;80;21015;-76
2023/09/29 05:26:27;;;;;;;22.90;14.53;;;;;;;14.61;77.58;101281.49;1792799;79;20991;-73
2023/09/29 05:28:59;;;;;;;24.70;13.68;;;;;;;14.69;77.57;101283.23;1792662;78;21481;-77
2023/09/29 05:31:28;;;;;;;27.67;13.90;;;;;;;14.74;77.57;101282.95;1792721;80;21038;-74
2023/09/29 05:33:58;;;;;;;19.52;13.40;;;;;;;14.82;77.45;101286.07;1792943;78;21419;-74
2023/09/29 05:36:29;;;;;;;24.90;13.65;;;;;;;14.89;77.21;101286.42;1775051;80;21011;-76
2023/09/29 05:38:58;;;;;;;23.07;13.68;;;;;;;14.98;77.03;101284.37;1792888;79;21023;-73
2023/09/29 05:41:27;;;;;;;34.83;17.27;;;;;;;15.07;76.89;101286.44;1792686;80;21427;-75
2023/09/29 05:43:56;;;;;;;25.95;14.98;;;;;;;15.13;76.75;101282.85;1792745;80;21445;-75
2023/09/29 05:46:25;;;;;;;25.97;14.98;;;;;;;15.18;76.69;101283.09;1792777;80;21462;-74
2023/09/29 05:48:55;;;;;;;24.12;14.25;;;;;;;15.23;76.70;101280.55;1792736;79;21292;-74
2023/09/29 05:51:24;;;;;;;22.27;14.50;;;;;;;15.29;76.59;101279.73;1792821;80;21050;-73
2023/09/29 05:53:53;;;;;;;24.05;13.20;;;;;;;15.38;76.33;101280.39;1792655;80;21011;-72
2023/09/29 05:56:23;;;;;;;24.30;13.83;;;;;;;15.44;76.00;101281.79;1792890;80;20971;-74
2023/09/29 05:58:53;;;;;;;24.87;13.62;;;;;;;15.51;75.81;101281.28;1792852;80;21469;-75
2023/09/29 06:01:22;;;;;;;23.02;13.93;;;;;;;15.60;75.71;101274.21;1792964;80;21054;-73
2023/09/29 06:03:53;;;;;;;26.52;14.10;;;;;;;15.68;75.27;101271.28;1793011;79;21019;-74
2023/09/29 06:06:23;;;;;;;63.65;16.60;;;;;;;15.76;74.68;101271.08;1792951;78;21536;-75
2023/09/29 06:08:53;;;;;;;58.95;16.48;;;;;;;15.84;74.33;101268.12;1792417;78;21098;-74
2023/09/29 06:11:25;;;;;;;37.85;16.37;;;;;;;15.94;74.01;101271.84;1791907;80;21054;-74
2023/09/29 06:13:55;;;;;;;37.80;17.02;;;;;;;16.03;73.67;101270.04;1791977;80;21019;-73
2023/09/29 06:16:26;;;;;;;29.90;15.60;;;;;;;16.10;73.46;101270.89;1791906;79;21035;-74
2023/09/29 06:18:55;;;;;;;29.07;15.93;;;;;;;16.17;73.20;101278.65;1792129;80;21035;-73
2023/09/29 06:21:28;;;;;;;29.57;15.13;;;;;;;16.25;72.69;101277.58;1791902;80;21461;-73
2023/09/29 06:23:57;;;;;;;34.67;15.85;;;;;;;16.35;72.25;101277.19;1791896;80;21019;-73
2023/09/29 06:26:27;;;;;;;27.37;14.93;;;;;;;16.42;71.86;101272.48;1791826;80;21505;-76
2023/09/29 06:28:57;;;;;;;31.12;15.85;;;;;;;16.50;71.47;101268.12;1828535;78;21571;-73
2023/09/29 06:31:26;;;;;;;51.55;17.20;;;;;;;16.58;71.07;101272.57;1791785;80;21471;-73
2023/09/29 06:33:57;;;;;;;49.95;16.57;;;;;;;16.64;70.77;101268.41;1791808;80;21428;-74
2023/09/29 06:36:28;;;;;;;49.90;16.82;;;;;;;16.70;70.33;101274.48;1791901;80;20991;-73
2023/09/29 06:38:58;;;;;;;32.90;14.80;;;;;;;16.77;70.02;101273.94;1792014;80;21007;-75
2023/09/29 06:41:27;;;;;;;33.30;15.75;;;;;;;16.85;69.58;101270.61;1791921;80;21015;-75
2023/09/29 06:43:56;;;;;;;53.40;17.62;;;;;;;16.91;69.20;101273.39;1792026;80;21022;-74
2023/09/29 06:46:26;;;;;;;45.98;16.67;;;;;;;16.99;69.02;101273.69;1791908;80;21479;-75
2023/09/29 06:48:55;;;;;;;48.87;22.13;;;;;;;17.04;68.89;101277.50;1792215;80;21042;-73
2023/09/29 06:51:27;;;;;;;44.10;16.48;;;;;;;17.13;68.60;101278.10;1828471;78;21026;-74
2023/09/29 06:53:57;;;;;;;50.12;16.55;;;;;;;17.20;68.26;101278.92;1828714;78;21450;-71
2023/09/29 06:56:27;;;;;;;48.85;17.67;;;;;;;17.28;67.96;101284.20;1828666;78;21014;-75
2023/09/29 06:58:57;;;;;;;35.13;15.45;;;;;;;17.34;67.91;101280.55;1828449;78;21532;-74
2023/09/29 07:01:30;;;;;;;33.85;16.12;;;;;;;17.40;67.76;101279.67;1791854;80;21478;-73
2023/09/29 07:04:00;;;;;;;27.82;15.23;;;;;;;17.47;67.44;101278.78;1791988;80;20987;-74
2023/09/29 07:06:31;;;;;;;43.35;18.20;;;;;;;17.54;67.37;101280.98;1827589;78;21471;-74
2023/09/29 07:09:01;;;;;;;32.60;15.38;;;;;;;17.61;67.16;101281.83;1827688;78;21042;-73
2023/09/29 07:11:31;;;;;;;32.63;14.55;;;;;;;17.70;66.94;101284.68;1792436;80;21494;-74
2023/09/29 07:14:00;;;;;;;29.30;14.10;;;;;;;17.79;66.46;101281.95;1792614;80;21447;-71
2023/09/29 07:16:29;;;;;;;39.42;15.85;;;;;;;17.86;66.14;101277.21;1792954;79;21078;-73
2023/09/29 07:18:58;;;;;;;37.85;16.35;;;;;;;17.93;65.99;101267.45;1792937;80;21030;-73
2023/09/29 07:21:31;;;;;;;28.38;16.12;;;;;;;18.01;65.76;101268.56;1792832;79;21411;-72
2023/09/29 07:23:59;;;;;;;25.92;14.68;;;;;;;18.09;65.37;101268.28;1792837;79;21038;-72
2023/09/29 07:26:30;;;;;;;27.15;13.95;;;;;;;18.16;64.79;101272.39;1792705;78;21018;-72
2023/09/29 07:29:01;;;;;;;24.15;13.40;;;;;;;18.24;64.53;101273.52;1792815;79;21019;-68
2023/09/29 07:31:36;;;;;;;20.70;11.97;;;;;;;18.29;64.23;101266.75;1792778;80;21062;-66
2023/09/29 07:34:05;;;;;;;24.52;12.63;;;;;;;18.35;63.74;101270.00;1792719;80;20979;-72
2023/09/29 07:36:35;;;;;;;20.60;11.33;;;;;;;18.43;63.10;101273.87;1792680;79;21019;-71
2023/09/29 07:39:04;;;;;;;18.95;10.95;;;;;;;18.50;62.33;101276.05;1792675;80;21097;-71
2023/09/29 07:41:34;;;;;;;26.62;11.43;;;;;;;18.58;61.53;101266.57;1792814;80;21012;-70
2023/09/29 07:44:04;;;;;;;23.22;10.72;;;;;;;18.67;60.81;101275.80;1792602;79;20995;-70
2023/09/29 07:46:33;;;;;;;21.82;10.90;;;;;;;18.78;60.28;101271.94;1792719;80;21447;-72
2023/09/29 07:49:02;;;;;;;23.40;10.10;;;;;;;19.04;59.71;101266.65;1792847;80;21034;-71
2023/09/29 07:51:32;;;;;;;19.90;11.03;;;;;;;19.49;58.74;101272.67;1801608;78;21102;-72
2023/09/29 07:54:01;;;;;;;20.17;11.05;;;;;;;20.04;57.96;101268.38;1801344;77;21034;-72
2023/09/29 07:56:34;;;;;;;25.55;10.08;;;;;;;20.60;57.54;101274.83;1793645;80;21030;-73
2023/09/29 07:59:04;;;;;;;21.70;10.85;;;;;;;21.14;56.25;101274.95;1766937;81;21031;-73
2023/09/29 08:01:34;;;;;;;19.85;10.58;;;;;;;21.68;54.90;101268.56;1814822;79;21112;-75
2023/09/29 08:04:04;;;;;;;26.23;11.30;;;;;;;22.23;53.71;101268.47;1805699;79;21017;-71
2023/09/29 08:06:33;;;;;;;22.32;10.68;;;;;;;22.72;52.48;101270.92;1765826;80;21077;-75
2023/09/29 08:09:03;;;;;;;21.62;9.95;;;;;;;23.23;49.83;101269.72;1767231;80;21049;-74
2023/09/29 08:11:33;;;;;;;33.67;13.55;;;;;;;23.63;48.69;101263.81;1820771;78;21562;-72
2023/09/29 08:14:04;;;;;;;22.07;10.18;;;;;;;23.92;47.76;101260.73;1789721;80;21040;-73
2023/09/29 08:16:35;;;;;;;27.80;9.98;;;;;;;24.20;46.83;101252.06;1801816;79;21014;-75
2023/09/29 08:19:05;;;;;;;24.37;9.95;;;;;;;24.50;45.91;101254.83;1789810;80;21010;-75
2023/09/29 08:21:34;;;;;;;22.52;10.25;;;;;;;24.85;44.31;101253.68;1821909;79;21070;-75
2023/09/29 08:24:06;;;;;;;24.77;9.70;;;;;;;25.13;43.45;101252.45;1789470;80;21096;-75
2023/09/29 08:26:37;;;;;;;27.17;9.45;;;;;;;25.49;42.29;101250.64;1789879;80;21046;-75
2023/09/29 08:29:09;;;;;;;22.00;9.58;;;;;;;25.77;41.79;101248.48;1789858;80;21035;-75
2023/09/29 08:31:39;;;;;;;14.47;7.87;;;;;;;25.93;40.86;101246.53;1789741;80;21090;-74
2023/09/29 08:34:09;;;;;;;18.60;9.68;;;;;;;26.12;39.68;101246.30;1789911;80;21054;-74
2023/09/29 08:36:39;;;;;;;18.87;9.58;;;;;;;26.31;38.85;101250.22;1789725;80;20987;-73
2023/09/29 08:39:09;;;;;;;14.58;8.23;;;;;;;26.40;39.22;101243.50;1760471;80;21023;-74
2023/09/29 08:41:45;;;;;;;17.48;8.83;;;;;;;26.38;38.05;101247.16;1789680;80;21375;-74
2023/09/29 08:44:18;;;;;;;12.53;7.37;;;;;;;26.26;37.96;101245.16;1789549;80;21023;-75
2023/09/29 08:46:51;;;;;;;14.35;8.00;;;;;;;26.15;37.72;101243.77;1789653;80;21019;-75
2023/09/29 08:49:21;;;;;;;14.40;6.95;;;;;;;26.16;36.57;101241.80;1789761;80;21011;-74
2023/09/29 08:51:52;;;;;;;15.53;6.95;;;;;;;26.09;36.41;101239.27;1788561;80;21078;-76
2023/09/29 08:54:23;;;;;;;14.38;6.75;;;;;;;26.02;36.50;101243.48;1789706;80;21078;-74
2023/09/29 08:56:52;;;;;;;14.60;6.60;;;;;;;25.93;37.10;101247.37;1789631;80;21168;-77
2023/09/29 08:59:22;;;;;;;18.17;7.30;;;;;;;25.84;36.33;101244.84;1789579;80;21475;-75
2023/09/29 09:01:55;;;;;;;10.70;6.22;;;;;;;25.73;36.01;101248.76;1761511;80;21077;-78
2023/09/29 09:04:24;;;;;;;8.00;5.03;;;;;;;25.58;35.45;101245.33;1787852;80;21073;-76
2023/09/29 09:06:54;;;;;;;10.60;7.20;;;;;;;25.34;34.74;101246.91;1801687;79;21039;-81
2023/09/29 09:09:24;;;;;;;10.82;5.65;;;;;;;25.16;34.68;101244.88;1789816;80;21005;-81
2023/09/29 09:11:53;;;;;;;8.98;4.80;;;;;;;25.05;35.09;101244.55;1801543;79;21525;-78
2023/09/29 09:14:23;;;;;;;10.28;4.95;;;;;;;25.00;35.09;101249.30;1789812;80;21073;-80
2023/09/29 09:16:52;;;;;;;10.43;5.37;;;;;;;24.91;34.74;101248.94;1821907;79;20991;-81
2023/09/29 09:19:21;;;;;;;8.80;5.22;;;;;;;24.77;34.80;101244.39;1761665;80;21018;-82
2023/09/29 09:21:52;;;;;;;8.45;5.00;;;;;;;24.62;34.95;101238.66;1774908;79;21091;-77
2023/09/29 09:24:23;;;;;;;7.45;5.12;;;;;;;24.53;35.54;101241.68;1789674;79;21310;-79
2023/09/29 09:26:52;;;;;;;9.70;5.00;;;;;;;24.49;35.63;101240.53;1801950;79;21060;-79
2023/09/29 09:29:21;;;;;;;12.50;5.58;;;;;;;24.43;35.58;101245.26;1733524;80;21033;-78
2023/09/29 09:31:52;;;;;;;8.85;5.40;;;;;;;24.36;35.59;101240.45;1822058;79;21090;-79
2023/09/29 09:34:33;;;;;;;10.60;5.70;;;;;;;24.29;35.72;101239.27;1789662;80;21065;-79
2023/09/29 09:37:02;;;;;;;10.58;5.22;;;;;;;24.25;36.12;101243.69;1821986;79;21026;-78
2023/09/29 09:39:33;;;;;;;11.12;5.40;;;;;;;24.21;35.86;101238.34;1789636;80;21418;-77
2023/09/29 09:42:05;;;;;;;7.55;4.80;;;;;;;24.20;35.43;101242.81;1821925;79;21030;-78
2023/09/29 09:44:34;;;;;;;10.45;5.60;;;;;;;24.16;35.35;101234.09;1789697;80;21160;-79
2023/09/29 09:47:04;;;;;;;12.07;5.70;;;;;;;24.15;35.47;101234.37;1801841;79;21092;-78
2023/09/29 09:49:48;;;;;;;10.20;6.35;;;;;;;24.12;35.58;101234.34;1789737;79;21002;-77
2023/09/29 09:52:32;;;;;;;11.85;5.60;;;;;;;24.13;35.91;101233.23;1822127;79;20971;-81
2023/09/29 09:55:06;;;;;;;12.93;5.92;;;;;;;24.13;35.59;101243.03;1762257;80;21049;-77
2023/09/29 09:57:41;;;;;;;7.80;5.58;;;;;;;24.08;34.87;101226.75;1799350;79;21052;-78
2023/09/29 10:00:11;;;;;;;8.88;5.03;;;;;;;24.01;35.07;101233.94;1789698;80;21569;-76
2023/09/29 10:02:53;;;;;;;12.20;5.70;;;;;;;23.98;35.15;101223.28;1821906;79;21045;-75
2023/09/29 10:05:23;;;;;;;9.10;5.12;;;;;;;23.95;34.66;101228.86;1822317;79;21088;-75
2023/09/29 10:08:01;;;;;;;7.33;5.40;;;;;;;23.90;34.97;101225.16;1822111;79;21049;-77
2023/09/29 10:10:37;;;;;;;11.90;5.62;;;;;;;23.89;35.07;101234.67;1793791;78;21061;-76
2023/09/29 10:13:12;;;;;;;10.93;6.60;;;;;;;23.82;35.32;101225.09;1816591;78;21005;-76
2023/09/29 10:15:42;;;;;;;10.78;6.28;;;;;;;23.83;35.56;101228.74;1816292;78;21042;-76
2023/09/29 10:18:19;;;;;;;10.60;6.08;;;;;;;23.83;35.40;101216.98;1816285;79;21096;-76
2023/09/29 10:21:00;;;;;;;9.90;6.60;;;;;;;23.80;34.93;101215.28;1816097;78;21021;-75
2023/09/29 10:23:27;;;;;;;11.70;7.60;;;;;;;23.76;35.21;101211.32;1816170;79;21496;-76
2023/09/29 10:26:02;;;;;;;11.45;6.10;;;;;;;23.75;35.23;101209.63;1785390;79;21410;-75
2023/09/29 10:28:34;;;;;;;14.07;6.35;;;;;;;23.80;35.21;101206.32;1816192;79;21113;-74
2023/09/29 10:31:15;;;;;;;10.25;5.70;;;;;;;23.89;35.22;101198.28;1816336;78;21049;-76
2023/09/29 10:33:53;;;;;;;9.98;6.47;;;;;;;23.95;35.18;101191.06;1816251;79;21049;-78
2023/09/29 10:36:26;;;;;;;10.88;6.28;;;;;;;23.98;35.10;101191.08;1816435;79;21041;-76
2023/09/29 10:38:57;;;;;;;15.00;6.17;;;;;;;24.01;35.05;101187.75;1816386;79;21073;-74
2023/09/29 10:41:33;;;;;;;8.53;5.65;;;;;;;23.99;34.96;101186.61;1816456;79;21489;-77
2023/09/29 10:44:00;;;;;;;15.70;6.95;;;;;;;23.95;34.87;101181.81;1814911;79;21057;-77
2023/09/29 10:46:30;;;;;;;12.98;6.22;;;;;;;23.92;34.76;101179.00;1816167;79;20990;-77
2023/09/29 10:49:00;;;;;;;8.28;5.50;;;;;;;23.91;34.92;101180.66;1816159;78;21022;-76
2023/09/29 10:51:31;;;;;;;8.03;5.60;;;;;;;23.92;34.82;101180.39;1816166;78;21613;-76
2023/09/29 10:54:09;;;;;;;8.58;6.20;;;;;;;23.93;34.86;101175.64;1816241;78;21454;-77
2023/09/29 10:56:39;;;;;;;13.10;6.50;;;;;;;23.94;34.92;101166.98;1816110;79;20994;-77
2023/09/29 10:59:10;;;;;;;12.05;5.90;;;;;;;23.97;35.15;101168.39;1816245;78;21009;-78
2023/09/29 11:01:44;;;;;;;7.90;5.47;;;;;;;23.98;35.09;101163.08;1802583;79;20980;-76
2023/09/29 11:04:12;;;;;;;11.30;6.50;;;;;;;23.97;35.28;101160.00;1823937;78;21094;-75
2023/09/29 11:06:46;;;;;;;9.08;6.15;;;;;;;23.96;35.10;101162.51;1801558;77;21078;-75
2023/09/29 11:09:19;;;;;;;16.37;6.40;;;;;;;23.95;35.02;101156.06;1862046;77;21026;-76
2023/09/29 11:11:51;;;;;;;11.55;6.10;;;;;;;23.97;35.13;101153.00;1824400;78;21082;-75
2023/09/29 11:14:20;;;;;;;11.45;6.53;;;;;;;23.99;35.02;101152.17;1806937;78;21551;-75
2023/09/29 11:16:57;;;;;;;9.30;5.78;;;;;;;24.01;35.01;101146.59;1824867;78;21011;-77
2023/09/29 11:19:30;;;;;;;10.20;6.22;;;;;;;24.06;34.88;101146.34;1825002;78;21047;-76
2023/09/29 11:22:00;;;;;;;10.08;5.72;;;;;;;24.12;34.89;101144.73;1824958;78;21023;-77
2023/09/29 11:24:40;;;;;;;10.53;5.85;;;;;;;24.16;34.84;101139.44;1824733;78;21038;-76
2023/09/29 11:27:11;;;;;;;14.23;6.12;;;;;;;24.21;34.56;101134.72;1825137;78;20984;-77
2023/09/29 11:29:43;;;;;;;11.18;6.40;;;;;;;24.26;34.49;101131.10;1824714;77;21517;-76